Time;durP1;ratioP1;P1;durP2;ratioP2;P2;SDS_P1;SDS_P2;PMS_P1;PMS_P2;Temp;Humidity;BMP_temperature;BMP_pressure;BME280_temperature;BME280_humidity;BME280_pressure;Samples;Min_cycle;Max_cycle;Signal;HPM_P1;HPM_P2
2022/01/12 00:01:05;;;;;;;19.05;7.75;;;;;;;6.88;60.05;103487.19;4990914;28;108383;-69
2022/01/12 00:03:33;;;;;;;14.85;6.85;;;;;;;6.87;59.99;103480.13;4991791;28;123981;-69
2022/01/12 00:06:03;;;;;;;15.75;6.30;;;;;;;6.86;59.98;103499.44;4988795;28;123682;-70
2022/01/12 00:08:33;;;;;;;14.98;6.72;;;;;;;6.87;60.29;103500.34;4989987;28;109892;-69
2022/01/12 00:11:03;;;;;;;13.75;7.55;;;;;;;6.88;60.05;103502.13;4991458;28;109889;-69
2022/01/12 00:13:32;;;;;;;14.95;7.25;;;;;;;6.89;60.05;103503.88;4991339;28;124201;-69
2022/01/12 00:16:01;;;;;;;15.00;6.90;;;;;;;6.91;60.24;103502.13;4988188;28;123852;-69
2022/01/12 00:18:30;;;;;;;14.43;6.85;;;;;;;6.92;60.13;103514.47;4991976;28;108440;-69
2022/01/12 00:20:57;;;;;;;15.65;7.30;;;;;;;6.95;60.36;103525.00;4990962;28;109340;-70
2022/01/12 00:23:25;;;;;;;14.27;7.00;;;;;;;6.95;60.37;103525.00;4988535;28;123601;-69
2022/01/12 00:34:00;;;;;;;16.08;7.55;;;;;;;7.00;60.40;103528.59;5004011;28;122341;-69
2022/01/12 00:36:28;;;;;;;14.88;7.32;;;;;;;7.01;60.21;103540.94;5006274;28;123761;-69
2022/01/12 00:38:56;;;;;;;16.42;6.93;;;;;;;7.01;60.14;103540.94;4989895;28;108286;-69
2022/01/12 00:41:25;;;;;;;18.08;7.47;;;;;;;7.03;59.95;103544.47;4989928;28;108120;-69
2022/01/12 00:43:58;;;;;;;14.05;7.35;;;;;;;7.04;59.93;103540.94;4990000;28;123323;-69
2022/01/12 00:46:30;;;;;;;14.27;7.10;;;;;;;7.05;60.19;103542.75;5002770;28;124182;-69
2022/01/12 00:48:58;;;;;;;14.73;6.70;;;;;;;7.06;59.90;103549.75;4990551;28;109112;-69
2022/01/12 00:51:31;;;;;;;13.73;7.45;;;;;;;7.07;59.82;103556.81;4990181;28;109000;-69
2022/01/12 00:54:00;;;;;;;15.30;7.78;;;;;;;7.09;60.24;103555.09;4986579;28;123899;-68
2022/01/12 00:56:28;;;;;;;17.27;7.93;;;;;;;7.09;59.94;103555.09;4990621;28;124328;-69
2022/01/12 00:58:55;;;;;;;18.98;7.78;;;;;;;7.12;60.13;103565.69;4989599;28;109742;-69
2022/01/12 01:01:23;;;;;;;16.40;7.03;;;;;;;7.11;60.17;103558.63;4991100;28;109882;-69
2022/01/12 01:03:51;;;;;;;14.43;7.38;;;;;;;7.13;60.02;103561.28;4989472;28;123356;-69
2022/01/12 01:06:21;;;;;;;17.23;7.35;;;;;;;7.12;59.80;103565.69;4988992;28;122942;-69
2022/01/12 01:08:51;;;;;;;17.90;7.72;;;;;;;7.13;59.89;103561.28;4973058;28;109082;-70
2022/01/12 01:11:23;;;;;;;15.50;8.65;;;;;;;7.12;59.93;103570.94;4992081;28;108133;-69
2022/01/12 01:14:02;;;;;;;13.68;8.00;;;;;;;7.11;59.83;103571.78;5000385;28;123590;-69
2022/01/12 01:27:31;;;;;;;15.23;7.53;;;;;;;7.00;60.16;103552.31;4988512;28;123202;-69
2022/01/12 01:29:58;;;;;;;16.45;8.55;;;;;;;6.97;60.02;103549.66;4990594;28;109334;-69
2022/01/12 01:32:27;;;;;;;17.15;8.23;;;;;;;6.95;60.15;103551.34;4989337;28;108851;-69
2022/01/12 01:34:54;;;;;;;14.77;7.82;;;;;;;6.95;60.53;103551.34;4977493;28;123903;-70
2022/01/12 01:37:21;;;;;;;20.05;8.80;;;;;;;6.93;60.29;103563.63;5002632;28;123564;-69
2022/01/12 01:39:49;;;;;;;17.13;8.98;;;;;;;6.91;60.42;103560.09;4992254;28;108936;-69
2022/01/12 01:42:24;;;;;;;16.40;8.07;;;;;;;6.90;60.44;103563.59;4988845;28;108111;-70
2022/01/12 01:55:41;;;;;;;;;;;;;;;6.82;60.36;103587.22;4994784;28;123608;-70
2022/01/12 01:58:09;;;;;;;15.82;7.95;;;;;;;6.81;60.46;103565.22;4989124;28;124213;-69
2022/01/12 02:00:40;;;;;;;17.95;8.82;;;;;;;6.80;60.69;103555.56;4994979;28;107555;-69
2022/01/12 02:03:12;;;;;;;16.17;8.10;;;;;;;6.78;60.44;103549.41;4989845;28;108205;-69
2022/01/12 02:05:46;;;;;;;15.50;7.97;;;;;;;6.76;60.87;103555.47;4983769;28;123765;-69
2022/01/12 02:08:14;;;;;;;17.83;8.70;;;;;;;6.75;61.02;103559.88;4988875;28;123025;-70
2022/01/12 02:10:54;;;;;;;18.10;8.27;;;;;;;6.77;60.69;103552.00;5000704;28;109200;-69
2022/01/12 02:13:23;;;;;;;16.88;8.40;;;;;;;6.75;60.72;103530.91;4991256;28;109237;-69
2022/01/12 02:15:51;;;;;;;19.98;8.73;;;;;;;6.75;60.71;103541.44;4991720;28;123362;-69
2022/01/12 02:18:38;;;;;;;17.38;8.48;;;;;;;6.74;60.98;103542.31;4994047;28;123699;-69
2022/01/12 02:40:38;;;;;;;18.98;8.95;;;;;;;6.76;61.17;103560.75;4994368;28;123823;-69
2022/01/12 02:43:17;;;;;;;20.30;9.68;;;;;;;6.76;60.87;103553.75;5008111;28;109111;-69
2022/01/12 02:51:29;;;;;;;;;;;;;;;6.71;60.84;103562.47;5004998;28;124447;-68
2022/01/12 02:53:56;;;;;;;18.98;9.50;;;;;;;6.72;60.94;103575.63;5012872;28;107934;-69
2022/01/12 02:56:30;;;;;;;17.70;8.60;;;;;;;6.73;61.41;103574.78;4997203;28;107311;-69
2022/01/12 02:58:59;;;;;;;23.63;9.75;;;;;;;6.73;60.90;103582.69;4990993;28;124608;-69
2022/01/12 03:01:56;;;;;;;19.48;9.63;;;;;;;6.75;61.21;103586.22;4991948;28;123575;-69
2022/01/12 03:04:19;;;;;;;18.27;9.48;;;;;;;6.77;60.97;103599.41;4991039;28;108684;-69
2022/01/12 03:06:46;;;;;;;21.70;9.75;;;;;;;6.78;61.05;103601.16;4990713;28;109460;-69
2022/01/12 03:09:14;;;;;;;20.30;9.35;;;;;;;6.77;61.25;103605.56;4974897;28;123652;-69
2022/01/12 03:11:41;;;;;;;23.13;10.10;;;;;;;6.77;61.19;103610.81;4991180;28;123948;-69
2022/01/12 03:14:15;;;;;;;19.98;9.15;;;;;;;6.79;61.23;103624.91;4991531;28;109495;-69
2022/01/12 03:16:43;;;;;;;23.95;9.88;;;;;;;6.80;61.10;103621.41;5006445;28;109267;-69
2022/01/12 03:19:21;;;;;;;18.13;9.40;;;;;;;6.80;61.15;103610.88;4976394;28;123527;-69
2022/01/12 03:21:48;;;;;;;18.08;9.38;;;;;;;6.81;61.28;103612.66;4992480;28;124041;-69
2022/01/12 03:24:16;;;;;;;19.77;9.55;;;;;;;6.83;61.11;103620.56;4974957;28;108300;-69
2022/01/12 03:26:46;;;;;;;24.50;10.90;;;;;;;6.85;61.06;103624.13;4975677;28;108207;-69
2022/01/12 03:29:17;;;;;;;19.35;9.30;;;;;;;6.87;61.22;103621.50;4990553;28;123591;-69
2022/01/12 03:31:44;;;;;;;23.00;10.30;;;;;;;6.89;61.41;103625.06;4990468;28;122796;-69
2022/01/12 03:34:25;;;;;;;17.83;9.88;;;;;;;6.89;61.32;103625.06;4975622;28;109224;-69
2022/01/12 03:37:18;;;;;;;19.67;9.93;;;;;;;6.90;61.42;103627.72;5007018;28;109475;-69
2022/01/12 03:39:45;;;;;;;21.48;10.18;;;;;;;6.90;61.40;103624.19;4990635;28;124420;-68
2022/01/12 03:42:15;;;;;;;20.75;9.90;;;;;;;6.90;61.45;103632.97;4974432;28;122979;-69
2022/01/12 03:44:43;;;;;;;22.55;10.48;;;;;;;6.91;61.20;103628.59;4992715;28;109943;-69
2022/01/12 03:47:10;;;;;;;20.63;9.73;;;;;;;6.92;61.36;103635.66;4992154;28;110113;-69
2022/01/12 03:49:37;;;;;;;21.30;10.25;;;;;;;6.94;61.24;103628.66;4990757;28;123273;-70
2022/01/12 03:52:06;;;;;;;24.52;10.45;;;;;;;6.95;61.21;103622.50;4991270;28;124732;-69
2022/01/12 03:54:33;;;;;;;19.30;9.65;;;;;;;6.96;61.46;103626.91;4990341;28;108522;-69
2022/01/12 03:57:00;;;;;;;24.20;10.20;;;;;;;6.95;61.14;103630.41;4990937;28;108805;-69
2022/01/12 03:59:28;;;;;;;24.20;10.07;;;;;;;6.96;61.53;103632.19;4989990;28;124474;-68
2022/01/12 04:01:55;;;;;;;23.27;10.95;;;;;;;6.98;61.24;103633.09;4986665;28;124198;-69
2022/01/12 04:04:31;;;;;;;19.77;10.52;;;;;;;7.00;61.45;103639.28;4987056;28;108013;-69
2022/01/12 04:09:46;;;;;;;22.73;10.68;;;;;;;7.01;61.52;103646.31;5001801;28;124181;-69
2022/01/12 04:12:15;;;;;;;20.35;10.35;;;;;;;7.00;61.21;103655.09;4989752;28;123196;-69
2022/01/12 04:14:43;;;;;;;26.05;10.35;;;;;;;7.01;61.57;103651.59;4983362;28;109205;-69
2022/01/12 04:17:11;;;;;;;21.52;10.75;;;;;;;7.00;61.11;103647.19;4990068;28;109701;-69
2022/01/12 04:19:42;;;;;;;23.75;10.93;;;;;;;6.99;61.43;103642.78;4972552;28;123221;-69
2022/01/12 04:24:56;;;;;;;26.23;11.77;;;;;;;7.02;61.48;103653.34;5005011;28;109587;-69
2022/01/12 04:27:23;;;;;;;26.50;11.63;;;;;;;7.02;61.42;103654.22;4990015;28;109752;-69
2022/01/12 04:29:51;;;;;;;22.48;11.10;;;;;;;7.04;61.42;103664.81;4990968;28;123826;-70
2022/01/12 04:32:20;;;;;;;25.17;11.75;;;;;;;7.05;61.23;103653.41;4989325;28;123100;-69
2022/01/12 04:34:47;;;;;;;23.67;11.43;;;;;;;7.05;61.20;103653.41;4989625;28;108184;-70
2022/01/12 04:37:14;;;;;;;27.73;11.95;;;;;;;7.06;61.68;103643.75;4973393;28;109003;-70
2022/01/12 04:39:42;;;;;;;22.20;10.93;;;;;;;7.05;61.32;103632.34;4986573;28;123111;-70
2022/01/12 04:42:10;;;;;;;26.92;11.30;;;;;;;7.06;61.70;103634.09;4989292;28;123039;-72
2022/01/12 04:44:44;;;;;;;25.63;11.40;;;;;;;7.05;61.63;103627.06;4986570;28;108958;-70
2022/01/12 04:47:15;;;;;;;23.73;11.25;;;;;;;7.06;61.79;103634.09;4989765;28;109590;-69
2022/01/12 04:52:15;;;;;;;28.40;10.90;;;;;;;7.06;61.72;103607.72;4989120;28;123055;-68
2022/01/12 04:54:44;;;;;;;27.63;12.27;;;;;;;7.06;61.65;103609.50;4987199;28;108711;-70
2022/01/12 04:57:12;;;;;;;26.67;12.48;;;;;;;7.05;61.39;103611.25;4982620;28;109197;-70
2022/01/12 04:59:51;;;;;;;25.70;12.10;;;;;;;7.04;61.88;103620.00;4994242;28;124086;-69
2022/01/12 05:08:11;;;;;;;26.55;11.50;;;;;;;7.05;61.68;103621.78;4989916;28;109189;-69
2022/01/12 05:13:26;;;;;;;30.30;11.75;;;;;;;7.07;61.64;103635.88;4999828;28;124217;-69
2022/01/12 05:15:55;;;;;;;26.58;11.10;;;;;;;7.08;61.69;103631.47;4988465;28;109813;-69
2022/01/12 05:18:22;;;;;;;32.13;12.15;;;;;;;7.07;61.80;103635.88;4973002;28;109187;-70
2022/01/12 05:20:52;;;;;;;29.63;12.25;;;;;;;7.08;61.76;103635.00;4972382;28;122971;-70
2022/01/12 05:23:19;;;;;;;28.55;12.50;;;;;;;7.09;61.75;103634.13;4988935;28;123208;-69
2022/01/12 05:25:46;;;;;;;25.77;11.75;;;;;;;7.11;61.68;103632.41;5002830;28;107933;-69
2022/01/12 05:28:14;;;;;;;27.30;12.35;;;;;;;7.11;61.81;103637.69;4991004;28;110399;-70
2022/01/12 05:30:43;;;;;;;28.45;12.20;;;;;;;7.11;61.91;103648.22;4988719;28;122308;-71
2022/01/12 05:33:11;;;;;;;28.20;12.48;;;;;;;7.10;61.66;103641.19;4988312;28;123124;-70
2022/01/12 05:35:39;;;;;;;30.27;13.23;;;;;;;7.11;62.06;103648.22;4988814;28;108734;-70
2022/01/12 05:38:09;;;;;;;25.02;12.35;;;;;;;7.12;62.04;103650.00;4988545;28;109606;-70
2022/01/12 05:40:38;;;;;;;29.45;12.75;;;;;;;7.13;61.88;103653.53;4989515;28;124254;-70
2022/01/12 05:43:08;;;;;;;30.45;12.52;;;;;;;7.15;62.01;103660.56;4988572;28;123300;-69
2022/01/12 05:45:39;;;;;;;26.02;12.50;;;;;;;7.17;61.92;103657.97;4989047;28;109135;-70
2022/01/12 05:50:39;;;;;;;27.55;12.30;;;;;;;7.17;61.73;103658.84;4997482;28;123828;-69
2022/01/12 05:53:16;;;;;;;28.10;13.35;;;;;;;7.16;61.71;103662.38;4990113;28;123758;-70
2022/01/12 05:55:46;;;;;;;28.85;13.00;;;;;;;7.16;61.81;103651.81;4991888;28;108702;-70
2022/01/12 05:58:13;;;;;;;31.05;13.38;;;;;;;7.17;61.85;103650.94;4991914;28;109953;-69
2022/01/12 06:00:41;;;;;;;28.05;12.63;;;;;;;7.17;61.72;103648.31;4990839;28;123347;-70
2022/01/12 06:03:08;;;;;;;33.25;13.48;;;;;;;7.17;61.50;103648.31;4991603;28;124310;-70
2022/01/12 06:05:35;;;;;;;28.65;13.00;;;;;;;7.16;62.09;103646.56;4978759;28;109388;-70
2022/01/12 06:08:03;;;;;;;30.38;13.32;;;;;;;7.16;61.78;103650.94;4992407;28;109181;-70
2022/01/12 06:10:31;;;;;;;32.08;13.82;;;;;;;7.16;61.76;103651.81;4991625;28;123563;-70
2022/01/12 06:12:59;;;;;;;34.58;13.82;;;;;;;7.16;62.08;103657.09;4974886;28;123098;-70
2022/01/12 06:15:26;;;;;;;33.55;14.45;;;;;;;7.13;61.98;103657.03;4993576;28;109322;-69
2022/01/12 06:17:53;;;;;;;36.30;14.73;;;;;;;7.13;62.16;103657.03;4991635;28;109856;-70
2022/01/12 06:20:21;;;;;;;35.45;14.20;;;;;;;7.12;61.94;103660.56;4994475;28;123326;-70
2022/01/12 06:23:04;;;;;;;32.60;13.27;;;;;;;7.14;62.25;103669.38;4991525;28;123392;-70
2022/01/12 06:25:34;;;;;;;33.55;14.05;;;;;;;7.13;62.12;103683.38;4991118;28;109821;-70
2022/01/12 06:33:49;;;;;;;34.90;14.80;;;;;;;7.12;62.13;103697.44;4991390;28;123138;-69
2022/01/12 06:36:19;;;;;;;31.77;13.68;;;;;;;7.11;62.04;103706.19;4990559;28;108852;-72
2022/01/12 06:38:48;;;;;;;34.63;14.65;;;;;;;7.11;61.90;103706.19;4971926;28;110113;-70
2022/01/12 06:41:16;;;;;;;34.75;15.20;;;;;;;7.12;62.21;103708.00;5007851;28;123680;-70
2022/01/12 06:43:45;;;;;;;37.03;14.68;;;;;;;7.13;62.22;103709.75;4988935;28;124451;-69
2022/01/12 06:46:17;;;;;;;36.63;15.57;;;;;;;7.14;62.15;103721.16;4990678;28;109158;-70
2022/01/12 06:48:44;;;;;;;31.60;14.65;;;;;;;7.14;62.20;103719.44;4972566;28;109136;-70
2022/01/12 06:51:12;;;;;;;34.35;14.57;;;;;;;7.13;62.06;103725.56;4991418;28;123638;-70
2022/01/12 06:53:39;;;;;;;31.17;14.32;;;;;;;7.14;62.08;103731.72;4991004;28;123201;-69
2022/01/12 06:56:08;;;;;;;33.10;14.48;;;;;;;7.14;62.12;103732.63;4990834;28;109259;-70
2022/01/12 06:58:39;;;;;;;32.95;14.35;;;;;;;7.16;62.03;103736.16;4989984;28;109496;-70
2022/01/12 07:01:07;;;;;;;35.53;13.88;;;;;;;7.16;62.21;103741.44;4973187;28;123494;-70
2022/01/12 07:03:40;;;;;;;35.60;14.77;;;;;;;7.17;61.93;103740.56;4990866;28;123431;-70
2022/01/12 07:06:07;;;;;;;33.83;15.10;;;;;;;7.18;62.03;103739.72;4991455;28;107520;-71
2022/01/12 07:08:36;;;;;;;34.47;15.25;;;;;;;7.19;62.07;103746.72;4991634;28;109116;-71
2022/01/12 07:11:05;;;;;;;30.67;14.38;;;;;;;7.21;62.11;103750.31;4974852;28;123249;-70
2022/01/12 07:13:33;;;;;;;36.20;14.50;;;;;;;7.23;62.38;103763.50;4991694;28;123372;-70
2022/01/12 07:16:00;;;;;;;37.30;15.45;;;;;;;7.22;62.27;103752.06;4985684;28;108382;-69
2022/01/12 07:18:29;;;;;;;38.42;14.52;;;;;;;7.24;62.10;103753.84;4990288;28;109396;-69
2022/01/12 07:20:57;;;;;;;37.30;14.73;;;;;;;7.23;62.24;103752.94;4988851;28;124586;-70
2022/01/12 07:23:25;;;;;;;33.67;14.20;;;;;;;7.25;62.21;103745.06;5007284;28;123036;-71
2022/01/12 07:25:53;;;;;;;32.08;14.43;;;;;;;7.27;62.36;103759.16;5007793;28;107413;-71
2022/01/12 07:28:21;;;;;;;37.80;14.77;;;;;;;7.29;62.11;103762.69;4992937;28;109667;-72
2022/01/12 07:30:49;;;;;;;35.22;15.25;;;;;;;7.31;62.10;103766.25;4990753;28;124545;-71
2022/01/12 07:33:16;;;;;;;37.75;16.38;;;;;;;7.31;62.35;103766.25;4990951;28;123871;-73
2022/01/12 07:35:44;;;;;;;35.45;14.88;;;;;;;7.30;62.12;103775.03;4993365;28;108884;-72
2022/01/12 07:38:11;;;;;;;33.60;14.75;;;;;;;7.28;62.23;103779.41;4989529;28;109984;-72
2022/01/12 07:40:39;;;;;;;38.65;15.07;;;;;;;7.31;62.38;103782.06;4988372;28;124328;-72
2022/01/12 07:43:06;;;;;;;35.08;15.27;;;;;;;7.32;62.39;103782.09;4990088;28;123081;-74
2022/01/12 07:45:36;;;;;;;35.65;15.73;;;;;;;7.33;62.07;103788.28;4991197;28;109952;-72
2022/01/12 07:48:04;;;;;;;36.53;15.75;;;;;;;7.36;62.35;103796.22;4991313;28;109453;-72
2022/01/12 07:50:32;;;;;;;34.38;15.35;;;;;;;7.36;62.11;103796.22;4990210;28;124180;-72
2022/01/12 07:52:59;;;;;;;36.33;14.95;;;;;;;7.39;62.44;103796.28;4989565;28;123699;-72
2022/01/12 07:55:26;;;;;;;39.65;16.98;;;;;;;7.40;62.18;103803.31;4989950;28;109057;-72
2022/01/12 07:57:54;;;;;;;39.35;15.25;;;;;;;7.41;62.54;103800.69;4991986;28;110028;-72
2022/01/12 08:00:21;;;;;;;36.95;16.17;;;;;;;7.42;62.09;103801.56;4990417;28;124736;-72
2022/01/12 08:02:51;;;;;;;40.92;16.05;;;;;;;7.44;62.14;103810.44;4988342;28;123370;-72
2022/01/12 08:05:19;;;;;;;40.38;15.35;;;;;;;7.45;62.28;103817.47;4990018;28;109423;-72
2022/01/12 08:07:47;;;;;;;37.15;15.68;;;;;;;7.46;62.60;103827.16;4991844;28;109960;-72
2022/01/12 08:10:15;;;;;;;36.75;16.17;;;;;;;7.48;61.90;103828.06;4990050;28;123567;-72
2022/01/12 08:12:43;;;;;;;33.05;15.90;;;;;;;7.47;62.06;103842.09;4991599;28;125091;-72
2022/01/12 08:15:11;;;;;;;42.20;16.52;;;;;;;7.47;62.25;103852.66;4992538;28;109017;-72
2022/01/12 08:17:38;;;;;;;39.53;15.38;;;;;;;7.47;62.14;103847.38;4991458;28;109132;-72
2022/01/12 08:20:10;;;;;;;48.45;16.27;;;;;;;7.47;61.99;103842.09;4990689;28;123415;-72
2022/01/12 08:22:38;;;;;;;40.72;15.70;;;;;;;7.45;62.10;103842.94;5007242;28;123701;-72
2022/01/12 08:25:07;;;;;;;41.60;15.45;;;;;;;7.46;62.36;103845.63;4992438;28;109701;-72
2022/01/12 08:27:35;;;;;;;43.58;15.85;;;;;;;7.46;62.42;103850.88;5007786;28;109196;-72
2022/01/12 08:30:04;;;;;;;35.88;15.07;;;;;;;7.47;62.52;103857.91;4989717;28;122918;-72
2022/01/12 08:32:31;;;;;;;34.58;15.05;;;;;;;7.47;62.39;103857.03;4990162;28;122589;-72
2022/01/12 08:34:58;;;;;;;33.90;15.57;;;;;;;7.48;62.46;103859.72;4992326;28;110256;-72
2022/01/12 08:37:26;;;;;;;37.55;16.33;;;;;;;7.49;62.30;103858.84;4993772;28;110513;-71
2022/01/12 08:39:53;;;;;;;43.85;15.60;;;;;;;7.51;62.37;103865.03;4993629;28;123852;-72
2022/01/12 08:42:20;;;;;;;40.47;15.82;;;;;;;7.52;62.36;103861.53;4993921;28;123771;-72
2022/01/12 08:44:47;;;;;;;39.53;14.77;;;;;;;7.54;62.72;103865.09;4990946;28;109515;-72
2022/01/12 08:47:14;;;;;;;37.35;15.25;;;;;;;7.55;62.69;103861.59;4991970;28;109764;-72
2022/01/12 08:49:42;;;;;;;37.10;15.38;;;;;;;7.56;62.61;103863.34;4989468;28;123644;-72
2022/01/12 08:52:10;;;;;;;43.58;16.15;;;;;;;7.57;62.60;103859.88;4973463;28;123148;-72
2022/01/12 08:54:37;;;;;;;41.83;15.75;;;;;;;7.59;62.57;103858.13;4990046;28;108100;-72
2022/01/12 08:57:04;;;;;;;39.65;15.90;;;;;;;7.63;62.38;103847.63;4990525;28;109767;-72
2022/01/12 08:59:31;;;;;;;40.30;16.10;;;;;;;7.65;62.73;103845.88;4990999;28;124269;-72
2022/01/12 09:01:58;;;;;;;34.60;15.18;;;;;;;7.68;62.73;103845.94;4987438;28;124280;-72
2022/01/12 09:04:27;;;;;;;39.15;15.25;;;;;;;7.70;62.69;103854.78;4991641;28;109398;-71
2022/01/12 09:06:55;;;;;;;43.60;16.02;;;;;;;7.73;62.40;103857.47;4987737;28;110376;-72
2022/01/12 09:09:22;;;;;;;38.38;15.35;;;;;;;7.74;62.45;103856.59;4991384;28;123908;-71
2022/01/12 09:11:49;;;;;;;36.20;14.85;;;;;;;7.77;62.42;103861.91;4991782;28;124974;-72
2022/01/12 09:14:16;;;;;;;35.30;13.88;;;;;;;7.79;62.59;103860.19;4991062;28;109004;-72
2022/01/12 09:16:50;;;;;;;35.25;14.40;;;;;;;7.81;62.73;103871.66;4992052;28;110142;-72
2022/01/12 09:19:17;;;;;;;25.52;11.32;;;;;;;7.82;62.52;103881.34;4989547;28;123497;-72
2022/01/12 09:21:44;;;;;;;33.45;12.35;;;;;;;7.80;62.43;103883.09;4992821;28;123918;-72
2022/01/12 09:24:11;;;;;;;34.63;13.65;;;;;;;7.77;62.76;103888.31;4993217;28;110072;-72
2022/01/12 09:26:38;;;;;;;33.40;12.50;;;;;;;7.74;62.54;103893.53;4993714;28;110603;-71
2022/01/12 09:29:05;;;;;;;30.48;11.90;;;;;;;7.71;62.58;103893.50;4994920;28;123693;-72
2022/01/12 09:31:33;;;;;;;29.13;12.48;;;;;;;7.69;62.71;103900.50;4994953;28;123720;-72
2022/01/12 09:34:04;;;;;;;30.70;12.38;;;;;;;7.67;62.38;103907.50;4993220;28;108863;-72
2022/01/12 09:36:31;;;;;;;34.55;11.75;;;;;;;7.65;62.66;103904.84;5010022;28;109485;-72
2022/01/12 09:39:00;;;;;;;29.70;12.43;;;;;;;7.65;62.71;103919.75;4994695;28;124163;-72
2022/01/12 09:41:27;;;;;;;30.45;11.98;;;;;;;7.66;62.93;103927.69;4992844;28;123242;-72
2022/01/12 09:43:57;;;;;;;25.08;11.88;;;;;;;7.67;62.76;103918.06;4994077;28;109082;-71
2022/01/12 09:46:26;;;;;;;25.55;11.02;;;;;;;7.66;62.75;103926.81;4995306;28;109759;-72
2022/01/12 09:48:55;;;;;;;25.45;10.80;;;;;;;7.64;62.96;103932.06;4993360;28;124770;-72
2022/01/12 09:51:23;;;;;;;22.80;10.85;;;;;;;7.63;62.63;103932.94;4992734;28;123494;-72
2022/01/12 09:53:50;;;;;;;28.77;11.40;;;;;;;7.63;62.44;103943.50;5009583;28;108597;-72
2022/01/12 09:56:21;;;;;;;29.52;11.27;;;;;;;7.62;62.82;103946.97;5010105;28;109538;-72
2022/01/12 09:58:54;;;;;;;28.05;10.10;;;;;;;7.60;62.59;103943.41;4993028;28;123852;-72
2022/01/12 10:01:28;;;;;;;23.83;9.82;;;;;;;7.59;62.58;103946.91;4994142;28;124822;-72
2022/01/12 10:04:26;;;;;;;28.63;10.00;;;;;;;7.54;62.73;103944.19;4994580;28;109252;-72
2022/01/12 10:06:56;;;;;;;26.73;10.77;;;;;;;7.54;62.64;103949.47;4986184;28;110205;-72
2022/01/12 10:09:31;;;;;;;26.60;10.82;;;;;;;7.51;62.82;103933.59;4992400;28;123572;-72
2022/01/12 10:12:00;;;;;;;29.95;10.30;;;;;;;7.50;62.80;103942.38;4993528;28;123876;-72
2022/01/12 10:14:44;;;;;;;24.90;10.50;;;;;;;7.48;62.79;103937.91;4976450;28;109522;-72
2022/01/12 10:17:12;;;;;;;23.55;9.68;;;;;;;7.47;63.19;103942.31;4992763;28;109141;-72
2022/01/12 10:19:41;;;;;;;27.98;9.95;;;;;;;7.47;63.04;103947.59;5009525;28;123817;-71
2022/01/12 10:22:14;;;;;;;27.38;10.23;;;;;;;7.47;63.28;103947.59;4992813;28;124792;-72
2022/01/12 10:24:45;;;;;;;27.15;10.02;;;;;;;7.47;63.22;103944.94;4993837;28;109348;-72
2022/01/12 10:27:18;;;;;;;28.95;10.77;;;;;;;7.50;63.33;103947.66;4994272;28;109776;-71
2022/01/12 10:29:54;;;;;;;25.45;10.38;;;;;;;7.52;63.31;103945.06;4993853;28;124205;-71
2022/01/12 10:32:21;;;;;;;26.58;10.50;;;;;;;7.53;63.12;103942.41;4990432;28;123973;-72
2022/01/12 10:34:50;;;;;;;20.80;10.15;;;;;;;7.54;63.01;103948.59;4994108;28;109975;-72
2022/01/12 10:37:22;;;;;;;25.48;10.05;;;;;;;7.56;63.19;103955.66;4992904;28;109977;-72
2022/01/12 10:39:51;;;;;;;32.35;9.98;;;;;;;7.58;62.98;103951.31;4991704;28;123959;-72
2022/01/12 10:42:22;;;;;;;25.58;9.88;;;;;;;7.62;63.04;103964.56;4992621;28;123820;-72
2022/01/12 10:44:52;;;;;;;30.23;10.75;;;;;;;7.64;62.93;103965.47;4993268;28;110648;-73
2022/01/12 10:47:21;;;;;;;27.23;10.57;;;;;;;7.64;63.25;103957.56;4994267;28;109762;-72
2022/01/12 10:49:55;;;;;;;22.95;9.85;;;;;;;7.65;63.02;103957.59;4993230;28;123924;-72
2022/01/12 10:52:24;;;;;;;24.33;9.95;;;;;;;7.65;63.38;103961.94;4991068;28;123728;-73
2022/01/12 10:54:53;;;;;;;26.45;9.98;;;;;;;7.63;63.30;103959.31;4992847;28;109592;-72
2022/01/12 10:57:30;;;;;;;24.15;9.82;;;;;;;7.64;63.17;103960.19;4992136;28;109209;-72
2022/01/12 11:00:18;;;;;;;24.85;9.88;;;;;;;7.64;63.26;103952.28;4988727;28;124625;-72
2022/01/12 11:02:59;;;;;;;20.63;8.68;;;;;;;7.65;63.41;103951.41;4989099;28;123622;-72
2022/01/12 11:05:29;;;;;;;25.02;9.52;;;;;;;7.65;63.42;103948.75;5007972;28;110166;-72
2022/01/12 11:07:56;;;;;;;27.73;9.80;;;;;;;7.67;63.00;103954.97;4993922;28;110015;-72
2022/01/12 11:10:26;;;;;;;26.55;10.30;;;;;;;7.68;63.24;103956.75;4993595;28;124782;-72
2022/01/12 11:12:53;;;;;;;27.17;10.43;;;;;;;7.70;63.38;103955.91;4998746;28;124395;-72
2022/01/12 11:15:21;;;;;;;28.45;10.10;;;;;;;7.72;63.50;103953.28;4996309;28;108088;-72
2022/01/12 11:17:50;;;;;;;26.92;10.88;;;;;;;7.72;63.36;103958.56;4993552;28;109434;-72
2022/01/12 11:20:19;;;;;;;27.45;10.75;;;;;;;7.75;63.22;103963.91;4993581;28;125702;-72
2022/01/12 11:23:06;;;;;;;27.23;10.82;;;;;;;7.77;63.32;103972.72;4989190;28;124704;-72
2022/01/12 11:25:39;;;;;;;31.70;11.55;;;;;;;7.76;63.34;103970.94;4990790;28;108704;-72
2022/01/12 11:28:26;;;;;;;27.73;10.73;;;;;;;7.74;62.85;103972.66;4990133;28;109816;-72
2022/01/12 11:30:56;;;;;;;32.60;11.70;;;;;;;7.72;63.30;103979.66;5000300;28;124237;-72
2022/01/12 11:33:30;;;;;;;26.55;9.93;;;;;;;7.70;63.38;103971.72;4974079;28;123938;-72
2022/01/12 11:36:05;;;;;;;30.05;11.63;;;;;;;7.70;63.30;103974.38;4992060;28;109579;-72
2022/01/12 11:38:34;;;;;;;29.63;11.00;;;;;;;7.67;63.18;103960.25;4990236;28;109662;-72
2022/01/12 11:41:20;;;;;;;29.73;11.20;;;;;;;7.65;62.93;103956.69;4991730;28;123652;-72
2022/01/12 11:44:02;;;;;;;26.73;10.55;;;;;;;7.63;62.91;103955.75;4989320;28;123716;-70
2022/01/12 11:46:43;;;;;;;26.08;10.02;;;;;;;7.60;63.26;103944.31;4990031;28;109188;-70
2022/01/12 11:49:23;;;;;;;25.75;10.38;;;;;;;7.62;63.32;103946.09;4974477;28;109354;-71
2022/01/12 11:51:50;;;;;;;34.47;11.77;;;;;;;7.62;63.08;103940.81;4985838;28;122957;-70
2022/01/12 11:54:20;;;;;;;27.67;10.77;;;;;;;7.63;63.42;103937.31;4970613;28;122879;-71
2022/01/12 11:56:57;;;;;;;28.27;10.70;;;;;;;7.68;63.25;103930.38;4971253;28;110171;-71
2022/01/12 11:59:27;;;;;;;28.58;10.80;;;;;;;7.74;63.05;103935.72;4971980;28;109823;-71
2022/01/12 12:02:15;;;;;;;34.80;11.02;;;;;;;7.78;63.47;103937.59;4986896;28;123044;-71
2022/01/12 12:04:57;;;;;;;30.13;11.63;;;;;;;7.84;63.18;103948.22;4971284;28;124631;-70
2022/01/12 12:07:25;;;;;;;28.63;11.05;;;;;;;7.89;63.41;103951.84;4973263;28;108742;-71
2022/01/12 12:09:57;;;;;;;27.33;10.95;;;;;;;7.91;63.39;103952.75;4973751;28;110818;-69
2022/01/12 12:12:32;;;;;;;32.50;11.60;;;;;;;7.95;62.88;103951.94;4971850;28;123990;-70
2022/01/12 12:15:00;;;;;;;;;;;;;;;7.96;62.94;103948.41;4972221;28;124182;-70
2022/01/12 12:17:29;;;;;;;30.13;10.65;;;;;;;8.01;63.39;103955.53;4992585;28;110055;-71
2022/01/12 12:19:59;;;;;;;27.45;10.75;;;;;;;8.05;63.03;103957.38;4995794;28;109259;-71
2022/01/12 12:22:32;;;;;;;26.27;11.18;;;;;;;8.09;63.12;103964.47;4989977;28;124172;-71
2022/01/12 12:25:13;;;;;;;28.45;10.98;;;;;;;8.11;63.14;103957.44;4986616;28;123334;-71
2022/01/12 12:27:42;;;;;;;23.75;10.57;;;;;;;8.11;63.06;103960.09;4990729;28;107496;-71
2022/01/12 12:30:14;;;;;;;27.38;10.55;;;;;;;8.12;63.05;103964.53;4991135;28;109669;-71
2022/01/12 12:32:45;;;;;;;34.85;11.00;;;;;;;8.12;63.01;103959.25;4988067;28;123791;-70
2022/01/12 12:35:19;;;;;;;27.10;11.10;;;;;;;8.13;62.99;103945.16;4988213;28;122707;-71
2022/01/12 12:37:56;;;;;;;30.05;11.18;;;;;;;8.15;63.17;103951.34;4990952;28;109263;-71
2022/01/12 12:40:24;;;;;;;29.88;11.27;;;;;;;8.18;63.01;103943.47;4995227;28;109570;-71
2022/01/12 12:43:20;;;;;;;28.83;11.20;;;;;;;8.20;62.73;103936.47;4988513;28;123780;-72
2022/01/12 12:45:59;;;;;;;29.77;10.77;;;;;;;8.20;62.87;103931.19;4987260;28;122808;-72